Time;durP1;ratioP1;P1;durP2;ratioP2;P2;SDS_P1;SDS_P2;PMS_P1;PMS_P2;Temp;Humidity;BMP_temperature;BMP_pressure;BME280_temperature;BME280_humidity;BME280_pressure;Samples;Min_cycle;Max_cycle;Signal;HPM_P1;HPM_P2
2022/05/27 00:00:52;;;;;;;2.78;1.35;;;486.60;2380.80;;;;;;5010774;28;20018;-58
2022/05/27 00:03:18;;;;;;;2.70;1.63;;;486.60;2380.80;;;;;;5010836;28;20030;-57
2022/05/27 00:05:47;;;;;;;1.75;1.38;;;461.70;2380.80;;;;;;5011243;28;20113;-57
2022/05/27 00:08:13;;;;;;;3.35;1.48;;;486.70;2380.80;;;;;;5010489;28;20064;-57
2022/05/27 00:10:39;;;;;;;2.85;1.65;;;486.70;2380.80;;;;;;5010971;28;20052;-57
2022/05/27 00:13:05;;;;;;;2.78;1.42;;;486.70;2380.80;;;;;;5011079;28;20033;-57
2022/05/27 00:15:31;;;;;;;4.70;1.63;;;486.70;2380.80;;;;;;5010615;28;20101;-57
2022/05/27 00:17:57;;;;;;;2.30;1.42;;;486.70;2380.80;;;;;;5010407;28;20102;-57
2022/05/27 00:20:23;;;;;;;3.60;1.63;;;486.70;2380.80;;;;;;5010311;28;20080;-57
2022/05/27 00:22:49;;;;;;;6.00;1.70;;;486.70;2380.80;;;;;;5010381;28;20466;-57
2022/05/27 00:25:15;;;;;;;4.28;1.80;;;486.70;2380.80;;;;;;5010450;28;20153;-57
2022/05/27 00:27:40;;;;;;;3.05;1.60;;;486.60;2380.80;;;;;;5010462;28;20029;-57
2022/05/27 00:30:09;;;;;;;4.47;2.33;;;486.50;2380.80;;;;;;5010533;28;20034;-56
2022/05/27 00:32:37;;;;;;;2.53;1.63;;;486.40;2380.80;;;;;;5010607;28;20491;-57
2022/05/27 00:35:03;;;;;;;2.55;1.70;;;461.70;2380.80;;;;;;5010145;28;20033;-58
2022/05/27 00:37:29;;;;;;;2.72;1.77;;;461.70;2380.80;;;;;;5010029;28;20116;-57
2022/05/27 00:39:56;;;;;;;3.17;1.60;;;461.60;2380.80;;;;;;5010370;28;20018;-57
2022/05/27 00:42:22;;;;;;;2.83;1.70;;;461.30;2380.80;;;;;;5010349;28;20025;-57
2022/05/27 00:44:47;;;;;;;2.78;1.70;;;460.90;2380.80;;;;;;5010533;28;20435;-57
2022/05/27 00:47:18;;;;;;;2.83;2.10;;;460.90;2380.80;;;;;;5010062;28;20128;-57
2022/05/27 00:49:49;;;;;;;4.07;2.08;;;460.90;2380.80;;;;;;5010088;28;20050;-57
2022/05/27 00:52:19;;;;;;;3.80;2.20;;;461.10;2380.80;;;;;;5010349;28;20026;-57
2022/05/27 00:54:45;;;;;;;5.30;2.00;;;461.00;2380.80;;;;;;5009994;28;20362;-57
2022/05/27 00:57:17;;;;;;;2.78;1.77;;;461.10;2380.80;;;;;;5009923;28;20038;-57
2022/05/27 00:59:53;;;;;;;3.13;1.80;;;461.20;2380.80;;;;;;5009880;28;20493;-56
2022/05/27 01:02:19;;;;;;;2.35;1.73;;;461.20;2380.80;;;;;;5010181;28;20266;-56
2022/05/27 01:04:47;;;;;;;3.80;1.77;;;461.20;2380.80;;;;;;5010191;28;20026;-57
2022/05/27 01:07:13;;;;;;;2.88;1.63;;;461.20;2380.80;;;;;;5009822;28;20033;-57
2022/05/27 01:09:43;;;;;;;2.67;1.50;;;461.20;2380.80;;;;;;5009980;28;20065;-57
2022/05/27 01:12:17;;;;;;;2.42;1.30;;;461.20;2380.80;;;;;;5010144;28;20088;-57
2022/05/27 01:15:02;;;;;;;3.10;1.80;;;461.30;2380.80;;;;;;5010026;28;20030;-57
2022/05/27 01:17:39;;;;;;;2.55;1.60;;;461.20;2380.80;;;;;;5010154;28;20037;-56
2022/05/27 01:20:22;;;;;;;2.47;1.58;;;461.10;2380.80;;;;;;5010198;28;20033;-57
2022/05/27 01:23:22;;;;;;;3.17;1.75;;;461.00;2380.80;;;;;;5010023;28;20026;-57
2022/05/27 01:26:13;;;;;;;3.30;1.63;;;461.00;2380.80;;;;;;5009908;28;20577;-57
2022/05/27 01:28:53;;;;;;;2.80;1.60;;;461.00;2380.80;;;;;;5010067;28;20018;-57
2022/05/27 01:31:48;;;;;;;3.38;1.55;;;460.90;2380.80;;;;;;5013567;28;20318;-56
2022/05/27 01:34:25;;;;;;;4.35;1.83;;;461.00;2380.80;;;;;;5013283;28;20500;-57
2022/05/27 01:37:22;;;;;;;2.55;1.60;;;461.00;2380.80;;;;;;5013335;28;20425;-56
2022/05/27 01:40:00;;;;;;;2.55;1.55;;;461.00;2380.80;;;;;;5013704;28;20042;-56
2022/05/27 01:43:12;;;;;;;2.08;1.30;;;461.00;2380.80;;;;;;5013563;28;20480;-57
2022/05/27 01:45:55;;;;;;;2.33;1.48;;;461.00;2380.80;;;;;;4997595;28;20042;-57
2022/05/27 01:48:31;;;;;;;3.10;1.60;;;461.00;2380.80;;;;;;5012952;28;20033;-57
2022/05/27 01:51:05;;;;;;;3.28;1.80;;;460.90;2380.80;;;;;;5013252;28;20033;-57
2022/05/27 01:53:44;;;;;;;4.47;1.95;;;460.80;2380.80;;;;;;5012906;28;20465;-57
2022/05/27 01:56:40;;;;;;;3.45;1.88;;;436.00;2355.20;;;;;;5012999;28;20121;-56
2022/05/27 01:59:11;;;;;;;2.90;1.65;;;436.00;2355.20;;;;;;5012848;28;20037;-57
2022/05/27 02:01:42;;;;;;;3.08;1.90;;;436.00;2355.20;;;;;;5012935;28;20025;-57
2022/05/27 02:04:22;;;;;;;2.60;1.88;;;435.90;2355.20;;;;;;5012859;28;20472;-57
2022/05/27 02:07:00;;;;;;;2.90;1.77;;;436.10;2355.20;;;;;;5012877;28;20033;-57
2022/05/27 02:09:35;;;;;;;3.83;2.58;;;460.80;2380.80;;;;;;5013081;28;20053;-57
2022/05/27 02:12:33;;;;;;;2.30;1.52;;;460.90;2380.80;;;;;;5012679;28;20083;-57
2022/05/27 02:15:13;;;;;;;6.22;1.88;;;460.90;2380.80;;;;;;4914243;29;20040;-57
2022/05/27 02:17:54;;;;;;;2.63;1.70;;;460.90;2380.80;;;;;;4914306;29;20303;-56
2022/05/27 02:20:27;;;;;;;4.43;1.90;;;461.10;2380.80;;;;;;4913774;29;20043;-57
2022/05/27 02:22:58;;;;;;;3.72;2.10;;;461.10;2380.80;;;;;;4914012;29;20092;-57
2022/05/27 02:25:37;;;;;;;4.45;2.03;;;436.10;2355.20;;;;;;4908131;29;20079;-57
2022/05/27 02:28:29;;;;;;;4.25;1.75;;;461.00;2380.80;;;;;;4894948;29;20103;-57
2022/05/27 02:31:07;;;;;;;3.03;2.13;;;460.90;2380.80;;;;;;4895300;29;20539;-57
2022/05/27 02:36:29;;;;;;;3.42;1.63;;;460.80;2380.80;;;;;;4895231;29;20062;-57
2022/05/27 02:38:56;;;;;;;2.78;1.85;;;435.90;2355.20;;;;;;4895088;29;20460;-57
2022/05/27 02:41:29;;;;;;;2.67;1.90;;;435.80;2355.20;;;;;;4894506;29;20055;-57
2022/05/27 02:44:23;;;;;;;3.03;1.75;;;435.70;2355.20;;;;;;4895067;29;20035;-57
2022/05/27 02:46:58;;;;;;;2.92;1.70;;;435.70;2355.20;;;;;;4873523;29;20036;-57
2022/05/27 02:49:59;;;;;;;3.70;2.00;;;435.80;2355.20;;;;;;4894809;29;20029;-57
2022/05/27 02:52:30;;;;;;;4.57;2.13;;;435.90;2355.20;;;;;;4910605;29;20040;-57
2022/05/27 02:55:18;;;;;;;2.42;1.63;;;435.90;2355.20;;;;;;4932486;29;20086;-57
2022/05/27 02:57:47;;;;;;;2.22;1.63;;;436.00;2355.20;;;;;;4931984;29;20055;-57
2022/05/27 03:00:26;;;;;;;3.92;1.77;;;436.00;2355.20;;;;;;4932254;29;20115;-57
2022/05/27 03:02:53;;;;;;;4.05;1.90;;;435.90;2355.20;;;;;;4932021;29;20072;-57
2022/05/27 03:05:25;;;;;;;3.75;1.98;;;435.90;2355.20;;;;;;4932257;29;20027;-57
2022/05/27 03:08:30;;;;;;;3.75;1.92;;;436.00;2355.20;;;;;;4932221;29;20032;-56
2022/05/27 03:11:10;;;;;;;4.65;2.20;;;436.00;2355.20;;;;;;4931703;29;20127;-56
2022/05/27 03:13:57;;;;;;;3.10;1.98;;;436.00;2355.20;;;;;;4932030;29;20028;-57
2022/05/27 03:16:26;;;;;;;4.40;2.30;;;435.90;2355.20;;;;;;4932122;29;20044;-57
2022/05/27 03:19:28;;;;;;;3.15;2.00;;;435.90;2355.20;;;;;;4931791;29;20042;-57
2022/05/27 03:22:18;;;;;;;3.40;1.75;;;435.90;2355.20;;;;;;4931900;29;20036;-57
2022/05/27 03:24:47;;;;;;;2.38;1.50;;;436.00;2355.20;;;;;;4894338;29;20132;-56
2022/05/27 03:27:31;;;;;;;3.72;1.83;;;460.80;2380.80;;;;;;4912741;29;20063;-56
2022/05/27 03:30:00;;;;;;;2.50;1.55;;;436.10;2355.20;;;;;;4926544;29;20038;-57
2022/05/27 03:32:55;;;;;;;2.60;1.60;;;460.90;2380.80;;;;;;4932006;29;20058;-57
2022/05/27 03:35:32;;;;;;;2.60;1.90;;;461.00;2380.80;;;;;;4931486;29;20032;-57
2022/05/27 03:38:07;;;;;;;3.00;1.98;;;461.10;2380.80;;;;;;4931827;29;20040;-57
2022/05/27 03:40:42;;;;;;;2.85;1.98;;;461.10;2380.80;;;;;;4931696;29;20134;-57
2022/05/27 03:43:10;;;;;;;3.05;1.85;;;461.30;2380.80;;;;;;4931755;29;20154;-56
2022/05/27 03:45:51;;;;;;;2.65;1.67;;;461.40;2380.80;;;;;;4931579;29;20020;-57
2022/05/27 03:48:18;;;;;;;2.75;1.60;;;461.50;2380.80;;;;;;4931450;29;20035;-56
2022/05/27 03:50:48;;;;;;;2.45;1.75;;;461.70;2380.80;;;;;;4931187;29;20036;-57
2022/05/27 03:53:14;;;;;;;2.92;1.73;;;486.40;2380.80;;;;;;4930752;29;20046;-57
2022/05/27 03:55:44;;;;;;;3.47;2.28;;;486.50;2380.80;;;;;;4931332;29;20036;-57
2022/05/27 03:58:15;;;;;;;2.47;1.63;;;486.70;2380.80;;;;;;4931145;29;20525;-57
2022/05/27 04:00:41;;;;;;;3.00;1.80;;;487.00;2380.80;;;;;;4936037;28;20027;-57
2022/05/27 04:03:11;;;;;;;2.60;1.88;;;487.10;2380.80;;;;;;5010818;28;20037;-57
2022/05/27 04:05:38;;;;;;;3.92;1.83;;;512.00;2380.80;;;;;;5010841;28;20032;-57
2022/05/27 04:08:05;;;;;;;3.95;1.80;;;512.30;2380.80;;;;;;5010525;28;20030;-57
2022/05/27 04:10:30;;;;;;;3.00;1.80;;;512.50;2380.80;;;;;;5010594;28;20456;-57
2022/05/27 04:12:56;;;;;;;3.13;2.08;;;512.60;2380.80;;;;;;5010783;28;20029;-56
2022/05/27 04:15:22;;;;;;;3.33;2.03;;;512.80;2380.80;;;;;;5010469;28;20018;-58
2022/05/27 04:17:48;;;;;;;2.55;1.80;;;512.80;2380.80;;;;;;5010577;28;20029;-57
2022/05/27 04:20:17;;;;;;;2.63;1.60;;;512.90;2380.80;;;;;;5010335;28;20030;-57
2022/05/27 04:22:42;;;;;;;4.20;1.77;;;512.90;2380.80;;;;;;5010288;28;20080;-57
2022/05/27 04:25:10;;;;;;;3.95;2.28;;;537.80;2406.40;;;;;;5010129;28;20046;-57
2022/05/27 04:27:36;;;;;;;4.57;2.47;;;537.80;2406.40;;;;;;5010523;28;20034;-57
2022/05/27 04:30:06;;;;;;;3.90;1.83;;;537.80;2406.40;;;;;;5010372;28;20025;-57
2022/05/27 04:32:32;;;;;;;3.67;2.00;;;537.70;2406.40;;;;;;5010232;28;20388;-57
2022/05/27 04:34:58;;;;;;;3.00;2.10;;;537.90;2406.40;;;;;;5010350;28;20022;-57
2022/05/27 04:37:24;;;;;;;2.60;1.90;;;538.00;2406.40;;;;;;5010457;28;20033;-57
2022/05/27 04:39:51;;;;;;;3.20;1.70;;;538.40;2406.40;;;;;;5010336;28;20026;-57
2022/05/27 04:42:17;;;;;;;3.03;2.00;;;563.20;2432.00;;;;;;5010485;28;20048;-57
2022/05/27 04:44:42;;;;;;;2.90;1.98;;;563.60;2432.00;;;;;;5010051;28;20085;-57
2022/05/27 04:47:09;;;;;;;3.03;1.60;;;564.10;2432.00;;;;;;5010218;28;20060;-57
2022/05/27 04:49:50;;;;;;;3.95;2.10;;;589.40;2432.00;;;;;;5009967;28;20116;-57
2022/05/27 04:52:36;;;;;;;3.47;1.85;;;615.30;2201.60;;;;;;5010408;28;20388;-57
2022/05/27 04:55:07;;;;;;;2.58;1.73;;;640.20;2099.20;;;;;;5009210;28;20041;-56
2022/05/27 04:57:42;;;;;;;3.33;2.40;;;640.90;1971.20;;;;;;5009935;28;20044;-57
2022/05/27 05:00:17;;;;;;;3.20;2.38;;;717.10;1766.40;;;;;;5010379;28;20022;-57
2022/05/27 05:02:43;;;;;;;4.05;2.20;;;768.10;1612.80;;;;;;5029835;28;20142;-58
2022/05/27 05:05:14;;;;;;;3.80;2.55;;;794.20;1510.40;;;;;;5032131;28;20025;-56
2022/05/27 05:07:41;;;;;;;3.30;2.83;;;819.90;1408.00;;;;;;5033424;28;20022;-58
2022/05/27 05:10:13;;;;;;;4.05;2.92;;;845.60;1356.80;;;;;;5033642;28;20067;-58
2022/05/27 05:12:39;;;;;;;2.88;2.60;;;870.90;1280.00;;;;;;5033612;28;20021;-58
2022/05/27 05:15:05;;;;;;;3.78;3.28;;;896.20;1254.40;;;;;;5033695;28;20040;-57
2022/05/27 05:17:31;;;;;;;3.10;2.72;;;896.40;1203.20;;;;;;5033118;28;20017;-58
2022/05/27 05:19:57;;;;;;;3.10;2.75;;;921.60;1203.20;;;;;;5033493;28;20040;-58
2022/05/27 05:22:23;;;;;;;4.03;3.38;;;922.10;1152.00;;;;;;5033560;28;20018;-58
2022/05/27 05:24:53;;;;;;;3.13;2.83;;;896.80;1152.00;;;;;;5033164;28;20111;-58
2022/05/27 05:27:21;;;;;;;3.15;2.83;;;922.50;1126.40;;;;;;5033323;28;20038;-58
2022/05/27 05:29:46;;;;;;;2.90;2.60;;;922.10;1152.00;;;;;;5033579;28;20049;-58
2022/05/27 05:32:12;;;;;;;3.88;3.00;;;947.20;1126.40;;;;;;5033274;28;20464;-58
2022/05/27 05:34:38;;;;;;;4.00;3.45;;;973.00;1100.80;;;;;;5033170;28;20464;-58
2022/05/27 05:37:04;;;;;;;4.20;3.05;;;973.70;1049.60;;;;;;5015037;28;20046;-59
2022/05/27 05:39:30;;;;;;;4.53;3.70;;;998.80;1075.20;;;;;;5032809;28;20060;-59
2022/05/27 05:42:01;;;;;;;4.20;3.80;;;999.30;1049.60;;;;;;5033208;28;20068;-59
2022/05/27 05:44:27;;;;;;;4.20;2.95;;;1024.30;998.40;;;;;;5033236;28;20108;-58
2022/05/27 05:46:54;;;;;;;4.00;3.65;;;1049.60;998.40;;;;;;5032988;28;20125;-58
2022/05/27 05:49:20;;;;;;;4.38;4.03;;;1050.50;972.80;;;;;;5033154;28;20033;-58
2022/05/27 05:51:45;;;;;;;5.82;3.97;;;1050.50;972.80;;;;;;5032936;28;20108;-58
2022/05/27 05:54:11;;;;;;;4.72;4.32;;;1024.60;972.80;;;;;;5032632;28;20112;-59
2022/05/27 05:56:37;;;;;;;5.00;4.60;;;1050.20;972.80;;;;;;5032839;28;20030;-58
2022/05/27 05:59:04;;;;;;;5.50;5.10;;;1050.20;972.80;;;;;;5032419;28;20033;-58
2022/05/27 06:01:29;;;;;;;5.50;5.07;;;1024.90;972.80;;;;;;5032811;28;20026;-58
2022/05/27 06:03:55;;;;;;;7.10;5.53;;;1050.30;972.80;;;;;;5032942;28;20032;-59
2022/05/27 06:06:21;;;;;;;5.57;4.95;;;1024.20;972.80;;;;;;5032577;28;20172;-59
2022/05/27 06:08:47;;;;;;;5.47;5.00;;;1024.70;947.20;;;;;;5032655;28;20030;-58
2022/05/27 06:11:13;;;;;;;5.20;4.80;;;1024.20;972.80;;;;;;5032416;28;20033;-58
2022/05/27 06:13:42;;;;;;;5.68;5.18;;;1049.70;972.80;;;;;;5032317;28;20487;-59
2022/05/27 06:16:09;;;;;;;6.50;5.93;;;1101.20;947.20;;;;;;5032117;28;20101;-58
2022/05/27 06:18:35;;;;;;;5.65;5.13;;;1100.80;921.60;;;;;;5032506;28;20038;-59
2022/05/27 06:21:02;;;;;;;11.43;5.68;;;;;;;;;;5032183;28;20022;-59
2022/05/27 06:23:28;;;;;;;6.10;5.60;;;1050.00;972.80;;;;;;5032489;28;20025;-58
2022/05/27 06:26:00;;;;;;;6.00;5.38;;;1126.40;921.60;;;;;;5032214;28;20131;-59
2022/05/27 06:36:40;;;;;;;7.68;6.88;;;1101.60;896.00;;;;;;5032221;28;20045;-59
2022/05/27 06:39:10;;;;;;;8.77;7.65;;;1101.00;947.20;;;;;;5032078;28;20045;-58
2022/05/27 06:41:36;;;;;;;8.35;7.68;;;1100.90;947.20;;;;;;5032381;28;20129;-58
2022/05/27 06:44:03;;;;;;;5.80;5.13;;;1101.40;921.60;;;;;;5031988;28;20449;-59
2022/05/27 06:46:30;;;;;;;6.43;5.80;;;1024.00;998.40;;;;;;5031913;28;20048;-59
2022/05/27 06:48:56;;;;;;;7.82;5.63;;;947.70;1049.60;;;;;;5032243;28;20029;-59
2022/05/27 06:51:22;;;;;;;7.40;4.60;;;921.90;1100.80;;;;;;5031785;28;20031;-59
2022/05/27 06:53:49;;;;;;;5.68;5.13;;;871.10;1177.60;;;;;;5031783;28;20034;-58
2022/05/27 06:56:15;;;;;;;6.38;3.78;;;845.60;1203.20;;;;;;5031748;28;20075;-58
2022/05/27 06:58:41;;;;;;;6.70;5.05;;;845.30;1254.40;;;;;;5031675;28;20111;-58
2022/05/27 07:01:09;;;;;;;4.57;3.80;;;871.20;1177.60;;;;;;5032011;28;20391;-58
2022/05/27 07:03:37;;;;;;;4.93;3.97;;;870.70;1203.20;;;;;;5031414;28;20034;-58
2022/05/27 07:06:04;;;;;;;5.68;4.22;;;870.80;1203.20;;;;;;5031102;28;20030;-58
2022/05/27 07:08:30;;;;;;;5.80;4.95;;;870.90;1177.60;;;;;;5031603;28;20053;-58
2022/05/27 07:10:56;;;;;;;6.55;5.15;;;896.90;1100.80;;;;;;5031613;28;20026;-58
2022/05/27 07:13:22;;;;;;;4.43;4.03;;;973.10;1049.60;;;;;;5031193;28;20082;-59
2022/05/27 07:15:47;;;;;;;4.72;4.30;;;922.00;1126.40;;;;;;5031359;28;20076;-58
2022/05/27 07:18:13;;;;;;;6.40;5.25;;;999.00;1024.00;;;;;;5031362;28;20365;-59
2022/05/27 07:20:41;;;;;;;4.70;4.28;;;1024.60;972.80;;;;;;5013097;28;20037;-59
2022/05/27 07:23:06;;;;;;;6.88;6.25;;;1024.40;972.80;;;;;;5031246;28;20395;-59
2022/05/27 07:25:35;;;;;;;6.40;5.88;;;1076.10;947.20;;;;;;5031397;28;20054;-59
2022/05/27 07:28:02;;;;;;;5.05;4.65;;;1075.80;921.60;;;;;;5030192;28;20118;-59
2022/05/27 07:30:28;;;;;;;5.68;4.10;;;1024.40;972.80;;;;;;5012851;28;20511;-59
2022/05/27 07:32:54;;;;;;;6.47;5.85;;;973.30;1024.00;;;;;;5031196;28;20308;-59
2022/05/27 07:35:20;;;;;;;6.43;5.93;;;1024.20;998.40;;;;;;5031114;28;20029;-59
2022/05/27 07:37:47;;;;;;;7.22;6.53;;;1075.60;947.20;;;;;;5031020;28;20468;-59
2022/05/27 07:40:13;;;;;;;6.82;6.25;;;1101.50;947.20;;;;;;5030813;28;20069;-59
2022/05/27 07:42:38;;;;;;;5.68;5.03;;;1126.60;947.20;;;;;;5031203;28;20056;-59
2022/05/27 07:45:06;;;;;;;8.85;6.07;;;1050.50;972.80;;;;;;5030726;28;20398;-59
2022/05/27 07:47:32;;;;;;;7.60;7.05;;;1076.10;947.20;;;;;;5030632;28;20060;-59
2022/05/27 07:49:57;;;;;;;7.43;6.93;;;1127.30;896.00;;;;;;5030885;28;20057;-59
2022/05/27 07:52:24;;;;;;;7.47;6.97;;;1152.10;896.00;;;;;;5030719;28;20100;-60
2022/05/27 07:54:55;;;;;;;6.40;5.97;;;1127.30;896.00;;;;;;5030935;28;20033;-59
2022/05/27 07:57:24;;;;;;;7.05;6.65;;;1152.20;896.00;;;;;;5030569;28;20101;-60
2022/05/27 08:00:00;;;;;;;7.20;6.70;;;1126.80;921.60;;;;;;5030720;28;20029;-60
2022/05/27 08:02:26;;;;;;;6.60;6.10;;;1101.60;947.20;;;;;;5030722;28;20087;-59
2022/05/27 08:04:53;;;;;;;5.82;5.35;;;1101.60;921.60;;;;;;5030182;28;20064;-59
2022/05/27 08:07:19;;;;;;;7.82;5.82;;;1100.90;972.80;;;;;;5028292;28;20037;-59
2022/05/27 08:09:44;;;;;;;6.20;5.63;;;1101.00;947.20;;;;;;5028805;28;20472;-58
2022/05/27 08:12:10;;;;;;;5.05;4.65;;;1050.00;998.40;;;;;;5028700;28;20072;-59
2022/05/27 08:14:36;;;;;;;5.82;5.32;;;1050.00;972.80;;;;;;5028999;28;20116;-59
2022/05/27 08:17:02;;;;;;;8.00;5.40;;;973.70;1049.60;;;;;;5028962;28;20411;-59
2022/05/27 08:19:28;;;;;;;7.18;3.38;;;948.10;1075.20;;;;;;5028136;28;20048;-59
2022/05/27 08:21:54;;;;;;;4.38;3.47;;;947.60;1100.80;;;;;;5028358;28;20022;-58
2022/05/27 08:24:19;;;;;;;4.75;3.95;;;922.00;1152.00;;;;;;5028657;28;20120;-58
2022/05/27 08:26:47;;;;;;;3.20;2.88;;;896.80;1177.60;;;;;;5030163;28;20060;-59
2022/05/27 08:29:13;;;;;;;3.53;2.95;;;896.50;1177.60;;;;;;5030584;28;20080;-59
2022/05/27 08:31:39;;;;;;;3.58;3.28;;;896.00;1203.20;;;;;;5030373;28;20030;-58
2022/05/27 08:39:39;;;;;;;3.72;2.60;;;870.50;1228.80;;;;;;5029978;28;20047;-58
2022/05/27 08:42:29;;;;;;;5.68;3.53;;;870.40;1228.80;;;;;;5030238;28;20427;-58
2022/05/27 08:45:33;;;;;;;4.70;2.95;;;845.20;1254.40;;;;;;5029998;28;20464;-58
2022/05/27 08:48:07;;;;;;;3.20;2.90;;;845.60;1280.00;;;;;;4949930;29;20036;-58
2022/05/27 08:50:54;;;;;;;4.32;2.47;;;845.40;1254.40;;;;;;4949621;29;20103;-58
2022/05/27 08:53:28;;;;;;;3.78;2.85;;;844.90;1280.00;;;;;;4949812;29;20557;-58
2022/05/27 09:01:41;;;;;;;4.22;3.03;;;819.30;1305.60;;;;;;4949800;29;20122;-58
2022/05/27 09:04:24;;;;;;;3.15;2.75;;;819.80;1305.60;;;;;;4949840;29;20418;-58
2022/05/27 09:06:55;;;;;;;4.47;2.60;;;819.90;1280.00;;;;;;4949511;29;20502;-58
2022/05/27 09:09:22;;;;;;;4.05;3.30;;;844.80;1331.20;;;;;;4949314;29;20110;-58
2022/05/27 09:12:02;;;;;;;3.88;3.05;;;845.10;1305.60;;;;;;4949665;29;20047;-58
2022/05/27 09:14:31;;;;;;;3.72;2.63;;;819.80;1305.60;;;;;;4949932;29;20106;-58
2022/05/27 09:17:06;;;;;;;3.63;2.75;;;819.60;1305.60;;;;;;4949644;29;20039;-58
2022/05/27 09:19:32;;;;;;;3.90;2.92;;;819.30;1305.60;;;;;;4949404;29;20046;-59
2022/05/27 09:22:02;;;;;;;3.40;2.80;;;819.40;1331.20;;;;;;4949367;29;20023;-57
2022/05/27 09:24:40;;;;;;;3.60;2.70;;;819.60;1305.60;;;;;;5019130;28;20052;-59
2022/05/27 09:27:18;;;;;;;4.20;2.60;;;819.60;1331.20;;;;;;5029446;28;20064;-57
2022/05/27 09:30:02;;;;;;;6.13;3.53;;;794.30;1331.20;;;;;;5029406;28;20040;-57
2022/05/27 09:32:44;;;;;;;4.38;3.05;;;794.40;1356.80;;;;;;5029687;28;20049;-57
2022/05/27 09:35:30;;;;;;;4.00;2.78;;;794.10;1356.80;;;;;;5029181;28;20025;-58
2022/05/27 09:38:01;;;;;;;4.78;3.13;;;819.20;1356.80;;;;;;5029379;28;20127;-58
2022/05/27 09:40:49;;;;;;;3.10;2.33;;;819.40;1331.20;;;;;;5029777;28;20033;-58
2022/05/27 09:43:29;;;;;;;5.95;2.92;;;794.50;1331.20;;;;;;5029270;28;20618;-58
2022/05/27 09:45:59;;;;;;;3.80;2.88;;;793.90;1382.40;;;;;;5029469;28;20033;-58
2022/05/27 09:48:26;;;;;;;3.55;2.80;;;794.30;1356.80;;;;;;5029437;28;20034;-58
2022/05/27 09:50:52;;;;;;;4.32;2.58;;;794.20;1356.80;;;;;;5028311;28;20031;-58
2022/05/27 09:53:22;;;;;;;3.33;2.15;;;794.20;1382.40;;;;;;5031425;28;20151;-58
2022/05/27 09:56:02;;;;;;;6.15;2.97;;;794.20;1382.40;;;;;;5031236;28;20041;-59
2022/05/27 09:58:35;;;;;;;3.50;2.95;;;794.50;1382.40;;;;;;5031220;28;20133;-58
2022/05/27 10:01:19;;;;;;;3.13;2.67;;;819.20;1356.80;;;;;;5031320;28;20101;-59
2022/05/27 10:03:46;;;;;;;4.15;2.53;;;794.40;1356.80;;;;;;5030667;28;20033;-58
2022/05/27 10:06:19;;;;;;;4.32;3.10;;;794.50;1356.80;;;;;;5027902;28;20104;-59
2022/05/27 10:08:54;;;;;;;3.38;2.75;;;794.40;1356.80;;;;;;5017662;28;20034;-58
2022/05/27 10:11:23;;;;;;;4.85;3.15;;;794.20;1382.40;;;;;;5011736;28;20508;-57
2022/05/27 10:14:10;;;;;;;5.32;2.80;;;794.20;1356.80;;;;;;4999604;28;20025;-58
2022/05/27 10:16:37;;;;;;;4.35;3.00;;;794.20;1382.40;;;;;;5015998;28;20038;-57
2022/05/27 10:19:15;;;;;;;4.00;2.80;;;794.10;1382.40;;;;;;5015578;28;20388;-57
2022/05/27 10:21:53;;;;;;;3.95;3.00;;;793.90;1382.40;;;;;;5020422;28;20087;-57
2022/05/27 10:24:27;;;;;;;4.15;2.88;;;793.70;1408.00;;;;;;5018517;28;20030;-58
2022/05/27 10:27:04;;;;;;;4.95;2.83;;;794.20;1408.00;;;;;;4991212;28;20077;-57
2022/05/27 10:29:29;;;;;;;3.22;2.65;;;793.90;1382.40;;;;;;5004343;28;20029;-57
2022/05/27 10:31:58;;;;;;;4.07;3.25;;;794.00;1408.00;;;;;;5025026;28;20037;-57
2022/05/27 10:34:43;;;;;;;4.60;2.40;;;768.90;1408.00;;;;;;5024652;28;20065;-57
2022/05/27 10:37:30;;;;;;;4.70;2.50;;;768.60;1408.00;;;;;;5019434;28;20030;-57
2022/05/27 10:40:27;;;;;;;4.35;3.05;;;768.70;1408.00;;;;;;5021584;28;20108;-58
2022/05/27 10:42:56;;;;;;;4.00;3.40;;;793.70;1408.00;;;;;;5022043;28;20021;-57
2022/05/27 10:45:38;;;;;;;4.90;2.88;;;793.90;1382.40;;;;;;5018524;28;20088;-58
2022/05/27 10:48:18;;;;;;;4.43;3.30;;;793.70;1433.60;;;;;;5019015;28;20392;-57
2022/05/27 10:51:07;;;;;;;4.40;2.70;;;768.70;1408.00;;;;;;4992306;28;20035;-58
2022/05/27 10:53:48;;;;;;;3.38;2.80;;;793.70;1433.60;;;;;;4992260;28;20034;-57
2022/05/27 10:56:41;;;;;;;6.22;3.03;;;793.90;1408.00;;;;;;4992510;28;20034;-57
2022/05/27 11:02:06;;;;;;;4.50;2.85;;;794.00;1408.00;;;;;;4992548;28;19912;-58
2022/05/27 11:04:49;;;;;;;4.07;2.63;;;794.20;1408.00;;;;;;4992165;28;20022;-58
2022/05/27 11:07:30;;;;;;;3.70;2.97;;;794.10;1433.60;;;;;;4992273;28;20061;-58
2022/05/27 11:10:14;;;;;;;4.10;3.05;;;794.10;1408.00;;;;;;4992511;28;20033;-58
2022/05/27 11:16:39;;;;;;;4.30;2.78;;;793.70;1433.60;;;;;;4932400;29;20147;-58
2022/05/27 11:19:29;;;;;;;4.35;3.03;;;768.90;1408.00;;;;;;4931878;29;20103;-58
2022/05/27 11:22:10;;;;;;;3.40;2.80;;;768.90;1408.00;;;;;;4932114;29;20031;-58
2022/05/27 11:24:56;;;;;;;3.40;2.65;;;768.90;1408.00;;;;;;4931999;29;20040;-58
2022/05/27 11:27:50;;;;;;;4.38;2.95;;;794.00;1484.80;;;;;;4930714;29;20518;-56
2022/05/27 11:30:22;;;;;;;4.80;3.25;;;794.20;1433.60;;;;;;4914061;29;20046;-57
2022/05/27 11:33:12;;;;;;;5.45;2.83;;;794.40;1433.60;;;;;;4929900;29;20036;-58
2022/05/27 11:35:43;;;;;;;6.85;3.20;;;794.40;1433.60;;;;;;4929834;29;20037;-58
2022/05/27 11:38:32;;;;;;;4.57;3.00;;;794.20;1408.00;;;;;;4929765;29;20185;-58
2022/05/27 11:41:02;;;;;;;4.30;3.50;;;793.90;1433.60;;;;;;4929369;29;20036;-58
2022/05/27 11:43:37;;;;;;;4.35;3.50;;;793.70;1433.60;;;;;;4929796;29;20097;-57
2022/05/27 11:46:20;;;;;;;3.28;2.65;;;793.90;1433.60;;;;;;4929586;29;20035;-58
2022/05/27 11:49:10;;;;;;;4.18;3.15;;;794.20;1484.80;;;;;;4929707;29;20521;-58
2022/05/27 11:52:08;;;;;;;5.07;3.28;;;794.00;1459.20;;;;;;4948173;28;20034;-58
2022/05/27 11:55:06;;;;;;;4.15;2.67;;;794.00;1459.20;;;;;;4989110;28;20115;-58
2022/05/27 11:58:06;;;;;;;3.67;2.75;;;794.00;1408.00;;;;;;4989651;28;20026;-58
2022/05/27 12:00:38;;;;;;;5.15;3.03;;;794.20;1433.60;;;;;;4989501;28;20041;-58
2022/05/27 12:03:20;;;;;;;4.78;3.53;;;794.00;1433.60;;;;;;4989561;28;20110;-57
2022/05/27 12:05:53;;;;;;;3.58;2.85;;;794.20;1459.20;;;;;;4989700;28;20125;-58
2022/05/27 12:08:35;;;;;;;5.03;3.50;;;794.00;1433.60;;;;;;4989208;28;20482;-58
2022/05/27 12:11:19;;;;;;;5.85;3.67;;;794.20;1433.60;;;;;;4989436;28;20030;-59
2022/05/27 12:13:46;;;;;;;4.78;3.53;;;794.20;1433.60;;;;;;4988611;28;20022;-58
2022/05/27 12:16:23;;;;;;;4.68;3.60;;;794.00;1433.60;;;;;;4989411;28;20034;-58
2022/05/27 12:19:03;;;;;;;4.00;3.08;;;794.00;1433.60;;;;;;4989440;28;20412;-57
2022/05/27 12:21:37;;;;;;;5.88;3.58;;;793.90;1433.60;;;;;;4989160;28;20026;-58
2022/05/27 12:24:31;;;;;;;3.70;3.08;;;794.00;1433.60;;;;;;4989048;28;20030;-58
2022/05/27 12:26:58;;;;;;;6.75;3.28;;;794.30;1459.20;;;;;;4991054;28;20050;-58
2022/05/27 12:29:27;;;;;;;5.00;3.15;;;794.50;1433.60;;;;;;4990806;28;20131;-58
2022/05/27 12:31:54;;;;;;;6.93;3.78;;;819.20;1433.60;;;;;;4990883;28;20470;-58
2022/05/27 12:34:26;;;;;;;5.75;3.35;;;819.20;1433.60;;;;;;4989224;28;20109;-59
2022/05/27 12:37:25;;;;;;;4.25;3.15;;;794.50;1408.00;;;;;;4989036;28;20121;-59
2022/05/27 12:40:12;;;;;;;4.00;2.75;;;794.30;1433.60;;;;;;4988871;28;20041;-59
2022/05/27 12:42:40;;;;;;;7.22;3.22;;;794.50;1433.60;;;;;;4990737;28;20030;-58
2022/05/27 12:45:18;;;;;;;6.93;3.67;;;794.30;1433.60;;;;;;4991036;28;20035;-58
2022/05/27 12:47:49;;;;;;;4.80;3.53;;;794.50;1433.60;;;;;;4990662;28;20477;-58
2022/05/27 12:50:44;;;;;;;5.25;3.25;;;794.30;1408.00;;;;;;4990814;28;20037;-58
2022/05/27 12:53:20;;;;;;;4.22;3.47;;;794.10;1459.20;;;;;;4990258;28;20104;-58
2022/05/27 13:02:19;;;;;;;3.72;2.88;;;794.20;1459.20;;;;;;4990542;28;20198;-58
2022/05/27 13:04:47;;;;;;;4.93;3.25;;;794.20;1433.60;;;;;;4990455;28;20369;-58
2022/05/27 13:07:15;;;;;;;4.10;3.17;;;794.50;1459.20;;;;;;4990376;28;20022;-58
2022/05/27 13:09:44;;;;;;;4.55;3.17;;;819.40;1459.20;;;;;;4990300;28;20053;-59
2022/05/27 13:12:30;;;;;;;7.22;4.13;;;819.50;1433.60;;;;;;4990757;28;20026;-57
2022/05/27 13:15:06;;;;;;;4.00;3.10;;;794.50;1408.00;;;;;;4990801;28;20030;-58
2022/05/27 13:17:42;;;;;;;5.25;3.60;;;794.50;1433.60;;;;;;4990243;28;20041;-58
2022/05/27 13:20:17;;;;;;;5.97;3.47;;;794.20;1459.20;;;;;;4989090;28;20120;-58
2022/05/27 13:23:03;;;;;;;5.03;3.80;;;794.20;1433.60;;;;;;4988596;28;20031;-58
2022/05/27 13:25:39;;;;;;;4.07;3.45;;;794.20;1433.60;;;;;;4989710;28;20062;-58